createdAt,value
2022-08-07T00:01:12.653Z,5.32
2022-08-07T00:03:55.090Z,5.55
2022-08-07T00:06:32.916Z,5.47
2022-08-07T00:09:16.761Z,6.35
2022-08-07T00:11:47.997Z,6.15
2022-08-07T00:14:25.542Z,5.38
2022-08-07T00:16:59.230Z,6.60
2022-08-07T00:20:00.536Z,7.00
2022-08-07T00:22:24.459Z,6.00
2022-08-07T00:25:16.729Z,6.10
2022-08-07T00:27:53.141Z,5.90
2022-08-07T00:30:21.653Z,5.65
2022-08-07T00:32:55.854Z,5.85
2022-08-07T00:35:24.238Z,5.80
2022-08-07T00:37:51.673Z,6.07
2022-08-07T00:40:36.249Z,5.43
2022-08-07T00:43:09.753Z,5.05
2022-08-07T00:45:38.958Z,5.32
2022-08-07T00:48:09.100Z,6.05
2022-08-07T00:50:46.620Z,6.30
2022-08-07T00:53:18.235Z,5.78
2022-08-07T00:56:02.099Z,5.63
2022-08-07T00:58:30.870Z,6.35
2022-08-07T01:00:59.151Z,5.93
2022-08-07T01:03:54.789Z,6.60
2022-08-07T01:06:13.913Z,6.13
2022-08-07T01:08:53.003Z,6.40
2022-08-07T01:12:24.052Z,6.53
2022-08-07T01:14:09.294Z,7.07
2022-08-07T01:16:37.538Z,5.97
2022-08-07T01:19:14.770Z,6.28
2022-08-07T01:21:53.460Z,6.55
2022-08-07T01:24:26.585Z,7.05
2022-08-07T01:26:54.856Z,6.70
2022-08-07T01:29:27.943Z,6.70
2022-08-07T01:31:59.755Z,6.82
2022-08-07T01:34:31.878Z,7.25
2022-08-07T01:37:03.871Z,7.00
2022-08-07T01:39:40.687Z,6.70
2022-08-07T01:42:39.473Z,7.07
2022-08-07T01:45:22.780Z,6.95
2022-08-07T01:48:20.014Z,7.40
2022-08-07T01:50:50.978Z,7.50
2022-08-07T01:54:12.513Z,6.90
2022-08-07T01:56:18.758Z,7.32
2022-08-07T01:58:53.786Z,7.03
2022-08-07T02:01:25.335Z,7.65
2022-08-07T02:04:52.621Z,7.18
2022-08-07T02:07:36.227Z,7.32
2022-08-07T02:10:19.718Z,7.70
2022-08-07T02:12:50.157Z,6.72
2022-08-07T02:15:26.393Z,7.13
2022-08-07T02:17:56.626Z,7.55
2022-08-07T02:20:24.549Z,7.38
2022-08-07T02:22:59.570Z,6.95
2022-08-07T02:26:10.547Z,7.53
2022-08-07T02:28:24.525Z,7.30
2022-08-07T02:30:56.187Z,7.10
2022-08-07T02:33:32.815Z,7.00
2022-08-07T02:36:28.479Z,7.40
2022-08-07T02:38:58.376Z,6.95
2022-08-07T02:41:33.646Z,7.60
2022-08-07T02:44:05.447Z,7.22
2022-08-07T02:46:36.809Z,7.72
2022-08-07T02:49:05.777Z,8.60
2022-08-07T02:51:42.390Z,7.70
2022-08-07T02:54:18.352Z,7.07
2022-08-07T02:56:47.417Z,6.70
2022-08-07T02:59:17.853Z,7.15
2022-08-07T03:01:52.290Z,8.27
2022-08-07T03:04:24.347Z,6.78
2022-08-07T03:06:51.806Z,7.15
2022-08-07T03:09:43.455Z,6.60
2022-08-07T03:12:08.073Z,7.55
2022-08-07T03:14:43.809Z,6.47
2022-08-07T03:17:19.543Z,6.85
2022-08-07T03:19:54.561Z,7.90
2022-08-07T03:22:29.721Z,6.53
2022-08-07T03:24:59.883Z,7.50
2022-08-07T03:27:59.084Z,7.05
2022-08-07T03:30:18.254Z,7.43
2022-08-07T03:32:58.634Z,7.65
2022-08-07T03:35:43.553Z,7.75
2022-08-07T03:38:13.288Z,7.70
2022-08-07T03:40:44.199Z,7.72
2022-08-07T03:43:15.444Z,7.60
2022-08-07T03:45:50.641Z,8.02
2022-08-07T03:48:23.299Z,8.50
2022-08-07T03:50:55.815Z,8.90
2022-08-07T03:53:50.033Z,8.23
2022-08-07T03:56:33.290Z,8.38
2022-08-07T03:59:09.338Z,9.23
2022-08-07T04:01:45.587Z,8.65
2022-08-07T04:04:17.721Z,8.25
2022-08-07T04:06:50.787Z,8.52
2022-08-07T04:09:23.226Z,8.25
2022-08-07T04:12:25.414Z,9.20
2022-08-07T04:14:43.736Z,8.50
2022-08-07T04:17:19.951Z,7.70
2022-08-07T04:20:05.257Z,8.20
2022-08-07T04:22:36.003Z,7.38
2022-08-07T04:27:39.909Z,7.75
2022-08-07T04:30:35.958Z,7.45
2022-08-07T04:33:36.792Z,7.13
2022-08-07T04:36:06.416Z,7.15
2022-08-07T04:38:34.516Z,9.48
2022-08-07T04:41:02.666Z,8.77
2022-08-07T04:44:13.002Z,8.07
2022-08-07T04:47:04.704Z,8.60
2022-08-07T04:50:03.589Z,8.65
2022-08-07T04:52:51.173Z,8.20
2022-08-07T04:58:10.969Z,8.30
2022-08-07T04:58:49.812Z,8.35
2022-08-07T05:01:30.895Z,8.55
2022-08-07T05:04:20.215Z,7.07
2022-08-07T05:06:52.896Z,7.03
2022-08-07T05:09:46.251Z,7.15
2022-08-07T05:12:27.009Z,7.78
2022-08-07T05:15:04.635Z,7.15
2022-08-07T05:18:00.370Z,7.47
2022-08-07T05:20:25.588Z,8.15
2022-08-07T05:22:57.435Z,8.98
2022-08-07T05:25:54.389Z,8.48
2022-08-07T05:28:22.576Z,8.45
2022-08-07T05:30:54.298Z,8.25
2022-08-07T05:33:23.249Z,8.93
2022-08-07T05:35:51.932Z,8.40
2022-08-07T05:39:01.206Z,7.97
2022-08-07T05:41:14.549Z,7.43
2022-08-07T05:44:08.580Z,7.32
2022-08-07T05:46:36.915Z,7.30
2022-08-07T05:49:11.825Z,7.38
2022-08-07T05:51:43.444Z,6.53
2022-08-07T05:54:31.260Z,7.57
2022-08-07T05:57:03.820Z,7.22
2022-08-07T05:59:46.562Z,6.35
2022-08-07T06:02:22.730Z,5.82
2022-08-07T06:05:00.610Z,6.10
2022-08-07T06:08:12.984Z,6.57
2022-08-07T06:10:16.340Z,6.15
2022-08-07T06:12:46.849Z,6.60
2022-08-07T06:15:16.400Z,5.43
2022-08-07T06:17:53.315Z,5.75
2022-08-07T06:20:32.242Z,6.28
2022-08-07T06:23:46.571Z,6.90
2022-08-07T06:25:59.532Z,7.38
2022-08-07T06:28:28.656Z,5.50
2022-08-07T06:30:58.602Z,6.32
2022-08-07T06:33:27.275Z,7.15
2022-08-07T06:36:12.991Z,7.68
2022-08-07T06:40:13.205Z,6.30
2022-08-07T06:42:01.681Z,7.03
2022-08-07T06:44:44.992Z,8.07
2022-08-07T06:47:19.126Z,8.18
2022-08-07T06:49:51.218Z,7.30
2022-08-07T06:52:31.429Z,7.93
2022-08-07T06:55:32.411Z,7.07
2022-08-07T06:58:00.477Z,7.15
2022-08-07T07:00:32.935Z,7.93
2022-08-07T07:03:10.999Z,8.50
2022-08-07T07:08:29.217Z,7.93
2022-08-07T07:10:57.786Z,7.40
2022-08-07T07:13:58.247Z,9.63
2022-08-07T07:16:30.714Z,8.13
2022-08-07T07:19:55.148Z,8.57
2022-08-07T07:22:12.086Z,9.30
2022-08-07T07:24:43.081Z,8.18
2022-08-07T07:27:26.461Z,8.40
2022-08-07T07:32:42.673Z,7.90
2022-08-07T07:35:11.592Z,7.78
2022-08-07T07:37:47.280Z,6.88
2022-08-07T07:40:25.261Z,8.88
2022-08-07T07:42:55.644Z,8.10
2022-08-07T07:46:39.873Z,8.35
2022-08-07T07:48:35.136Z,6.60
2022-08-07T07:53:31.171Z,6.93
2022-08-07T07:56:02.700Z,6.45
2022-08-07T07:58:40.365Z,6.97
2022-08-07T08:02:02.708Z,6.75
2022-08-07T08:04:10.797Z,7.30
2022-08-07T08:06:50.706Z,5.22
2022-08-07T08:09:20.447Z,5.20
2022-08-07T08:12:02.413Z,5.80
2022-08-07T08:14:36.185Z,5.50
2022-08-07T08:17:32.382Z,5.72
2022-08-07T08:20:18.657Z,4.90
2022-08-07T08:23:02.825Z,3.30
2022-08-07T08:25:50.859Z,3.50
2022-08-07T08:28:24.065Z,3.90
2022-08-07T08:31:07.182Z,4.28
2022-08-07T08:33:35.776Z,4.28
2022-08-07T08:36:07.491Z,5.00
2022-08-07T08:38:41.184Z,4.75
2022-08-07T08:41:31.495Z,4.82
2022-08-07T08:44:36.235Z,4.15
2022-08-07T08:47:25.040Z,4.43
2022-08-07T08:50:17.592Z,3.92
2022-08-07T08:53:04.125Z,4.00
2022-08-07T08:55:55.606Z,4.32
2022-08-07T08:58:32.884Z,3.83
2022-08-07T09:01:15.304Z,3.83
2022-08-07T09:04:02.178Z,3.47
2022-08-07T09:06:32.258Z,3.80
2022-08-07T09:09:02.331Z,4.38
2022-08-07T09:11:56.205Z,4.45
2022-08-07T09:14:58.630Z,4.50
2022-08-07T09:17:59.386Z,4.30
2022-08-07T09:20:43.522Z,4.93
2022-08-07T09:24:35.102Z,4.03
2022-08-07T09:26:51.131Z,3.90
2022-08-07T09:30:06.615Z,5.15
2022-08-07T09:32:26.445Z,4.50
2022-08-07T09:35:00.043Z,4.30
2022-08-07T09:37:33.344Z,5.20
2022-08-07T09:40:34.953Z,4.90
2022-08-07T09:43:18.682Z,5.00
2022-08-07T09:47:50.207Z,4.50
2022-08-07T09:50:02.723Z,4.80
2022-08-07T09:52:10.809Z,5.72
2022-08-07T09:54:40.697Z,4.45
2022-08-07T09:57:28.173Z,4.88
2022-08-07T10:00:00.657Z,5.10
2022-08-07T10:02:55.879Z,5.13
2022-08-07T10:05:59.550Z,4.75
2022-08-07T10:08:32.725Z,4.50
2022-08-07T10:12:00.572Z,5.50
2022-08-07T10:14:03.689Z,5.00
2022-08-07T10:16:33.118Z,5.68
2022-08-07T10:19:17.907Z,5.72
2022-08-07T10:22:15.938Z,5.07
2022-08-07T10:24:46.116Z,5.15
2022-08-07T10:27:30.211Z,5.18
2022-08-07T10:30:15.867Z,5.10
2022-08-07T10:32:53.834Z,4.50
2022-08-07T10:35:55.613Z,4.93
2022-08-07T10:38:46.469Z,4.20
2022-08-07T10:41:51.366Z,4.18
2022-08-07T10:44:12.038Z,4.88
2022-08-07T10:47:00.551Z,4.55
2022-08-07T10:49:49.164Z,4.15
2022-08-07T10:52:31.907Z,3.70
2022-08-07T10:55:36.964Z,3.75
2022-08-07T10:58:14.292Z,3.58
2022-08-07T11:01:11.760Z,3.58
2022-08-07T11:03:52.732Z,3.83
2022-08-07T11:07:00.579Z,3.22
2022-08-07T11:10:10.259Z,4.18
2022-08-07T11:12:31.446Z,3.58
2022-08-07T11:15:02.320Z,3.70
2022-08-07T11:17:50.463Z,3.58
2022-08-07T11:20:24.383Z,3.80
2022-08-07T11:23:02.760Z,3.03
2022-08-07T11:25:42.214Z,3.30
2022-08-07T11:28:17.556Z,3.60
2022-08-07T11:30:50.942Z,3.50
2022-08-07T11:33:53.336Z,2.97
2022-08-07T11:36:15.862Z,3.20
2022-08-07T11:38:52.653Z,3.72
2022-08-07T11:41:31.018Z,3.42
2022-08-07T11:44:20.762Z,3.65
2022-08-07T11:46:53.606Z,3.80
2022-08-07T11:50:18.810Z,3.75
2022-08-07T11:52:49.397Z,5.18
2022-08-07T11:56:09.395Z,3.13
2022-08-07T11:58:20.845Z,3.72
2022-08-07T12:01:19.955Z,3.30
2022-08-07T12:06:37.801Z,2.97
2022-08-07T12:09:16.586Z,3.38
2022-08-07T12:12:09.484Z,3.25
2022-08-07T12:14:53.791Z,3.03
2022-08-07T12:17:25.218Z,3.50
2022-08-07T12:20:03.202Z,2.35
2022-08-07T12:22:56.028Z,2.35
2022-08-07T12:26:21.496Z,2.90
2022-08-07T12:28:45.058Z,2.13
2022-08-07T12:31:24.983Z,2.70
2022-08-07T12:34:12.744Z,2.33
2022-08-07T12:36:42.286Z,2.30
2022-08-07T12:39:42.075Z,1.90
2022-08-07T12:42:06.966Z,3.08
2022-08-07T12:44:35.294Z,2.15
2022-08-07T12:47:27.150Z,2.00
2022-08-07T12:50:04.660Z,1.88
2022-08-07T12:52:35.446Z,2.25
2022-08-07T12:55:16.493Z,1.95
2022-08-07T12:58:00.632Z,2.30
2022-08-07T13:00:50.237Z,1.90
2022-08-07T13:03:56.264Z,2.00
2022-08-07T13:06:27.733Z,2.03
2022-08-07T13:09:33.392Z,2.38
2022-08-07T13:12:03.363Z,2.15
2022-08-07T13:14:46.785Z,2.08
2022-08-07T13:17:21.215Z,2.30
2022-08-07T13:19:53.411Z,3.08
2022-08-07T13:22:31.047Z,3.03
2022-08-07T13:25:15.174Z,2.88
2022-08-07T13:28:13.876Z,2.35
2022-08-07T13:30:52.379Z,2.30
2022-08-07T13:34:31.338Z,2.60
2022-08-07T13:36:28.995Z,2.58
2022-08-07T13:38:59.667Z,2.22
2022-08-07T13:41:41.300Z,1.95
2022-08-07T13:44:10.614Z,2.50
2022-08-07T13:46:48.898Z,2.03
2022-08-07T13:50:33.010Z,2.38
2022-08-07T13:52:30.581Z,2.30
2022-08-07T13:54:56.456Z,2.10
2022-08-07T13:57:32.081Z,2.47
2022-08-07T14:00:07.100Z,1.92
2022-08-07T14:02:51.041Z,1.88
2022-08-07T14:05:37.503Z,2.40
2022-08-07T14:08:07.940Z,1.70
2022-08-07T14:10:42.219Z,1.83
2022-08-07T14:13:14.609Z,2.28
2022-08-07T14:15:44.548Z,1.98
2022-08-07T14:18:30.491Z,1.80
2022-08-07T14:21:20.856Z,1.77
2022-08-07T14:24:33.647Z,1.80
2022-08-07T14:28:09.139Z,1.60
2022-08-07T14:30:07.653Z,1.60
2022-08-07T14:32:42.906Z,1.60
2022-08-07T14:35:43.186Z,2.20
2022-08-07T14:38:06.235Z,1.75
2022-08-07T14:40:35.548Z,2.15
2022-08-07T14:43:57.455Z,1.88
2022-08-07T14:46:05.319Z,2.13
2022-08-07T14:48:36.387Z,1.83
2022-08-07T14:51:15.888Z,1.90
2022-08-07T14:54:03.736Z,1.90
2022-08-07T14:56:39.802Z,1.75
2022-08-07T14:59:13.752Z,2.20
2022-08-07T15:02:08.867Z,1.70
2022-08-07T15:04:57.067Z,2.15
2022-08-07T15:07:50.961Z,1.90
2022-08-07T15:10:25.939Z,2.20
2022-08-07T15:12:58.039Z,1.75
2022-08-07T15:15:30.674Z,1.80
2022-08-07T15:18:04.038Z,2.05
2022-08-07T15:25:14.956Z,2.67
2022-08-07T15:26:21.246Z,1.90
2022-08-07T15:28:54.065Z,2.17
2022-08-07T15:32:01.803Z,1.90
2022-08-07T15:34:14.979Z,2.10
2022-08-07T15:37:02.823Z,2.25
2022-08-07T15:39:57.051Z,2.35
2022-08-07T15:42:47.579Z,2.58
2022-08-07T15:45:19.300Z,2.72
2022-08-07T15:48:01.100Z,2.33
2022-08-07T15:50:37.719Z,2.60
2022-08-07T15:53:52.966Z,2.33
2022-08-07T15:56:20.428Z,2.95
2022-08-07T15:58:58.792Z,2.60
2022-08-07T16:01:40.001Z,2.88
2022-08-07T16:04:14.767Z,2.85
2022-08-07T16:06:54.228Z,2.85
2022-08-07T16:09:42.345Z,3.08
2022-08-07T16:12:12.132Z,3.00
2022-08-07T16:15:00.358Z,4.05
2022-08-07T16:18:01.474Z,2.70
2022-08-07T16:20:33.136Z,2.30
2022-08-07T16:23:53.101Z,2.70
2022-08-07T16:26:14.519Z,3.15
2022-08-07T16:30:05.457Z,2.55
2022-08-07T16:31:51.688Z,2.45
2022-08-07T16:34:26.298Z,2.60
2022-08-07T16:38:04.915Z,2.97
2022-08-07T16:40:12.895Z,3.13
2022-08-07T16:43:06.161Z,3.58
2022-08-07T16:46:40.554Z,2.92
2022-08-07T16:49:10.512Z,3.03
2022-08-07T16:51:57.730Z,2.90
2022-08-07T16:54:35.992Z,2.65
2022-08-07T16:57:15.543Z,3.17
2022-08-07T16:59:52.203Z,4.05
2022-08-07T17:02:51.330Z,3.30
2022-08-07T17:08:08.960Z,3.25
2022-08-07T17:10:54.796Z,3.03
2022-08-07T17:13:41.368Z,4.38
2022-08-07T17:16:28.522Z,2.95
2022-08-07T17:19:23.958Z,3.42
2022-08-07T17:22:14.779Z,7.05
2022-08-07T17:24:49.999Z,7.88
2022-08-07T17:27:32.691Z,7.50
2022-08-07T17:30:15.893Z,3.78
2022-08-07T17:33:02.779Z,6.32
2022-08-07T17:35:54.899Z,14.45
2022-08-07T17:38:34.419Z,4.00
2022-08-07T17:42:02.968Z,5.25
2022-08-07T17:44:05.904Z,6.75
2022-08-07T17:46:40.181Z,4.72
2022-08-07T17:49:26.358Z,5.18
2022-08-07T17:52:00.410Z,5.18
2022-08-07T17:54:53.150Z,4.97
2022-08-07T17:57:32.052Z,6.00
2022-08-07T18:00:33.267Z,7.20
2022-08-07T18:03:18.094Z,9.02
2022-08-07T18:06:01.470Z,5.40
2022-08-07T18:09:01.205Z,4.03
2022-08-07T18:12:16.482Z,3.80
2022-08-07T18:14:37.665Z,3.67
2022-08-07T18:17:21.363Z,10.85
2022-08-07T18:21:04.487Z,3.40
2022-08-07T18:23:42.229Z,3.60
2022-08-07T18:28:58.113Z,3.20
2022-08-07T18:31:33.808Z,3.70
2022-08-07T18:34:06.072Z,3.92
2022-08-07T18:37:00.150Z,3.17
2022-08-07T18:40:08.710Z,3.65
2022-08-07T18:42:50.318Z,4.10
2022-08-07T18:46:22.379Z,4.05
2022-08-07T18:50:33.149Z,3.58
2022-08-07T18:52:35.031Z,3.13
2022-08-07T18:54:33.771Z,3.45
2022-08-07T18:57:40.584Z,3.45
2022-08-07T19:00:32.059Z,4.30
2022-08-07T19:03:37.865Z,3.78
2022-08-07T19:06:21.478Z,3.72
2022-08-07T19:09:09.548Z,3.78
2022-08-07T19:12:05.593Z,4.22
2022-08-07T19:14:52.753Z,4.75
2022-08-07T19:17:59.231Z,4.63
2022-08-07T19:20:28.874Z,4.05
2022-08-07T19:23:18.389Z,3.53
2022-08-07T19:26:23.328Z,4.80
2022-08-07T19:30:57.129Z,3.97
2022-08-07T19:31:57.756Z,4.40
2022-08-07T19:34:34.304Z,4.25
2022-08-07T19:37:17.017Z,5.65
2022-08-07T19:39:57.224Z,10.07
2022-08-07T19:42:40.080Z,7.57
2022-08-07T19:45:09.917Z,8.95
2022-08-07T19:50:40.787Z,6.90
2022-08-07T19:52:59.047Z,6.43
2022-08-07T19:55:57.720Z,5.70
2022-08-07T19:58:18.350Z,6.20
2022-08-07T20:00:56.563Z,6.60
2022-08-07T20:03:35.155Z,5.45
2022-08-07T20:06:04.424Z,6.22
2022-08-07T20:08:34.442Z,5.30
2022-08-07T20:11:09.889Z,6.75
2022-08-07T20:13:48.409Z,6.85
2022-08-07T20:16:32.365Z,7.28
2022-08-07T20:19:04.396Z,6.22
2022-08-07T20:21:46.662Z,5.05
2022-08-07T20:24:28.820Z,5.50
2022-08-07T20:26:59.253Z,4.10
2022-08-07T20:29:48.769Z,6.20
2022-08-07T20:32:25.806Z,5.95
2022-08-07T20:34:54.615Z,5.20
2022-08-07T20:37:29.482Z,4.93
2022-08-07T20:40:03.159Z,5.07
2022-08-07T20:42:32.393Z,4.22
2022-08-07T20:45:01.080Z,5.00
2022-08-07T20:47:56.139Z,4.43
2022-08-07T20:50:21.310Z,4.55
2022-08-07T20:52:51.247Z,4.40
2022-08-07T20:55:23.952Z,4.43
2022-08-07T20:58:03.519Z,4.72
2022-08-07T21:00:42.089Z,4.28
2022-08-07T21:03:10.409Z,4.77
2022-08-07T21:05:54.961Z,4.47
2022-08-07T21:08:37.888Z,4.20
2022-08-07T21:11:10.938Z,4.22
2022-08-07T21:13:57.809Z,3.63
2022-08-07T21:16:34.174Z,4.32
2022-08-07T21:19:02.055Z,4.63
2022-08-07T21:21:33.266Z,4.15
2022-08-07T21:24:24.924Z,3.88
2022-08-07T21:27:01.322Z,4.78
2022-08-07T21:29:40.179Z,4.35
2022-08-07T21:32:48.479Z,4.22
2022-08-07T21:35:11.955Z,4.22
2022-08-07T21:37:58.171Z,3.60
2022-08-07T21:40:27.127Z,4.68
2022-08-07T21:43:00.497Z,4.18
2022-08-07T21:46:10.863Z,4.80
2022-08-07T21:48:38.443Z,5.85
2022-08-07T21:53:46.344Z,5.40
2022-08-07T21:56:36.498Z,5.80
2022-08-07T21:59:10.847Z,5.55
2022-08-07T22:02:10.837Z,5.82
2022-08-07T22:04:51.433Z,6.63
2022-08-07T22:07:31.503Z,5.72
2022-08-07T22:10:08.281Z,5.13
2022-08-07T22:12:52.170Z,6.00
2022-08-07T22:16:39.291Z,6.53
2022-08-07T22:18:33.109Z,5.45
2022-08-07T22:21:21.752Z,5.05
2022-08-07T22:23:58.868Z,5.28
2022-08-07T22:26:44.647Z,5.47
2022-08-07T22:29:23.603Z,5.50
2022-08-07T22:32:06.422Z,5.40
2022-08-07T22:34:40.042Z,5.47
2022-08-07T22:37:20.101Z,5.55
2022-08-07T22:40:11.845Z,5.43
2022-08-07T22:42:41.187Z,4.07
2022-08-07T22:46:21.748Z,4.40
2022-08-07T22:48:13.713Z,3.97
2022-08-07T22:51:14.047Z,4.75
2022-08-07T22:54:06.408Z,4.70
2022-08-07T22:56:36.169Z,4.90
2022-08-07T22:59:07.781Z,4.68
2022-08-07T23:01:49.893Z,5.05
2022-08-07T23:04:29.876Z,4.65
2022-08-07T23:06:58.062Z,4.47
2022-08-07T23:10:00.666Z,4.60
2022-08-07T23:12:36.286Z,4.32
2022-08-07T23:15:03.949Z,4.90
2022-08-07T23:17:41.553Z,5.03
2022-08-07T23:20:40.320Z,5.10
2022-08-07T23:23:14.787Z,4.70
2022-08-07T23:26:07.816Z,5.38
2022-08-07T23:28:54.458Z,4.45
2022-08-07T23:32:49.222Z,5.00
2022-08-07T23:34:38.273Z,4.63
2022-08-07T23:37:20.011Z,5.53
2022-08-07T23:40:01.914Z,4.95
2022-08-07T23:42:35.506Z,6.47
2022-08-07T23:45:33.083Z,5.93
2022-08-07T23:48:11.461Z,5.50
2022-08-07T23:50:48.456Z,5.53
2022-08-07T23:53:49.997Z,5.03
2022-08-07T23:56:27.739Z,4.88
